sensor_id;sensor_type;location;lat;lon;timestamp;pressure;altitude;pressure_sealevel;temperature;humidity
18533;BME280;9396;51.510;11.934;2023-11-19T00:02:17;100321.75;;;6.86;100.00
18533;BME280;9396;51.510;11.934;2023-11-19T00:04:44;100324.00;;;6.91;100.00
18533;BME280;9396;51.510;11.934;2023-11-19T00:07:10;100318.84;;;6.89;100.00
18533;BME280;9396;51.510;11.934;2023-11-19T00:09:38;100304.69;;;7.00;100.00
18533;BME280;9396;51.510;11.934;2023-11-19T00:12:06;100291.34;;;7.01;100.00
18533;BME280;9396;51.510;11.934;2023-11-19T00:14:33;100290.09;;;6.96;100.00
18533;BME280;9396;51.510;11.934;2023-11-19T00:17:00;100291.75;;;6.97;100.00
18533;BME280;9396;51.510;11.934;2023-11-19T00:19:28;100286.03;;;6.92;100.00
18533;BME280;9396;51.510;11.934;2023-11-19T00:21:54;100281.00;;;6.89;100.00
18533;BME280;9396;51.510;11.934;2023-11-19T00:24:21;100272.38;;;6.87;100.00
18533;BME280;9396;51.510;11.934;2023-11-19T00:26:47;100267.38;;;6.93;100.00
18533;BME280;9396;51.510;11.934;2023-11-19T00:29:14;100246.88;;;6.86;100.00
18533;BME280;9396;51.510;11.934;2023-11-19T00:31:41;100243.16;;;6.98;100.00
18533;BME280;9396;51.510;11.934;2023-11-19T00:34:07;100256.84;;;7.03;100.00
18533;BME280;9396;51.510;11.934;2023-11-19T00:36:35;100244.63;;;7.11;100.00
18533;BME280;9396;51.510;11.934;2023-11-19T00:39:02;100228.59;;;7.13;100.00
18533;BME280;9396;51.510;11.934;2023-11-19T00:41:29;100242.34;;;7.07;100.00
18533;BME280;9396;51.510;11.934;2023-11-19T00:43:55;100215.53;;;7.11;100.00
18533;BME280;9396;51.510;11.934;2023-11-19T00:46:22;100200.59;;;7.01;100.00
18533;BME280;9396;51.510;11.934;2023-11-19T00:48:49;100205.88;;;6.91;100.00
18533;BME280;9396;51.510;11.934;2023-11-19T00:51:15;100195.53;;;6.79;100.00
18533;BME280;9396;51.510;11.934;2023-11-19T00:53:43;100174.13;;;6.82;100.00
18533;BME280;9396;51.510;11.934;2023-11-19T00:56:10;100166.50;;;6.88;100.00
18533;BME280;9396;51.510;11.934;2023-11-19T00:58:38;100169.00;;;6.90;100.00
18533;BME280;9396;51.510;11.934;2023-11-19T01:01:04;100159.97;;;6.92;100.00
18533;BME280;9396;51.510;11.934;2023-11-19T01:03:31;100163.28;;;6.94;100.00
18533;BME280;9396;51.510;11.934;2023-11-19T01:05:58;100168.97;;;6.80;100.00
18533;BME280;9396;51.510;11.934;2023-11-19T01:08:27;100159.91;;;6.64;100.00
18533;BME280;9396;51.510;11.934;2023-11-19T01:10:55;100156.28;;;6.65;100.00
18533;BME280;9396;51.510;11.934;2023-11-19T01:13:22;100156.88;;;6.78;100.00
18533;BME280;9396;51.510;11.934;2023-11-19T01:15:50;100145.41;;;6.68;100.00
18533;BME280;9396;51.510;11.934;2023-11-19T01:18:16;100136.00;;;6.84;100.00
18533;BME280;9396;51.510;11.934;2023-11-19T01:20:43;100116.09;;;6.71;100.00
18533;BME280;9396;51.510;11.934;2023-11-19T01:23:09;100103.53;;;6.53;100.00
18533;BME280;9396;51.510;11.934;2023-11-19T01:25:36;100105.34;;;6.53;100.00
18533;BME280;9396;51.510;11.934;2023-11-19T01:28:05;100099.25;;;6.72;100.00
18533;BME280;9396;51.510;11.934;2023-11-19T01:30:31;100106.22;;;6.82;100.00
18533;BME280;9396;51.510;11.934;2023-11-19T01:32:58;100081.16;;;6.77;100.00
18533;BME280;9396;51.510;11.934;2023-11-19T01:35:24;100083.72;;;6.97;100.00
18533;BME280;9396;51.510;11.934;2023-11-19T01:37:51;100082.03;;;6.87;100.00
18533;BME280;9396;51.510;11.934;2023-11-19T01:40:20;100076.59;;;6.98;100.00
18533;BME280;9396;51.510;11.934;2023-11-19T01:42:47;100073.13;;;6.97;100.00
18533;BME280;9396;51.510;11.934;2023-11-19T01:45:22;100071.59;;;7.04;100.00
18533;BME280;9396;51.510;11.934;2023-11-19T01:47:53;100077.84;;;7.13;100.00
18533;BME280;9396;51.510;11.934;2023-11-19T01:50:21;100064.63;;;7.13;100.00
18533;BME280;9396;51.510;11.934;2023-11-19T01:52:48;100060.31;;;7.21;100.00
18533;BME280;9396;51.510;11.934;2023-11-19T01:55:15;100067.97;;;7.05;100.00
18533;BME280;9396;51.510;11.934;2023-11-19T01:57:42;100061.97;;;7.03;100.00
18533;BME280;9396;51.510;11.934;2023-11-19T02:00:10;100049.19;;;7.08;100.00
18533;BME280;9396;51.510;11.934;2023-11-19T02:02:39;100035.28;;;6.97;100.00
18533;BME280;9396;51.510;11.934;2023-11-19T02:05:06;100029.16;;;6.87;100.00
18533;BME280;9396;51.510;11.934;2023-11-19T02:07:33;100027.91;;;6.81;100.00
18533;BME280;9396;51.510;11.934;2023-11-19T02:09:59;100009.69;;;6.88;100.00
18533;BME280;9396;51.510;11.934;2023-11-19T02:12:27;100015.53;;;7.01;100.00
18533;BME280;9396;51.510;11.934;2023-11-19T02:14:54;100008.94;;;7.14;100.00
18533;BME280;9396;51.510;11.934;2023-11-19T02:17:28;100007.28;;;7.13;100.00
18533;BME280;9396;51.510;11.934;2023-11-19T02:19:58;99980.69;;;7.24;100.00
18533;BME280;9396;51.510;11.934;2023-11-19T02:22:24;99961.72;;;7.29;100.00
18533;BME280;9396;51.510;11.934;2023-11-19T02:24:54;99957.81;;;7.33;100.00
18533;BME280;9396;51.510;11.934;2023-11-19T02:29:59;99957.78;;;7.42;100.00
18533;BME280;9396;51.510;11.934;2023-11-19T02:32:27;99965.28;;;7.47;100.00
18533;BME280;9396;51.510;11.934;2023-11-19T02:34:56;99964.22;;;7.40;100.00
18533;BME280;9396;51.510;11.934;2023-11-19T02:37:22;99957.22;;;7.39;100.00
18533;BME280;9396;51.510;11.934;2023-11-19T02:39:49;99941.19;;;7.50;100.00
18533;BME280;9396;51.510;11.934;2023-11-19T02:42:15;99933.88;;;7.34;100.00
18533;BME280;9396;51.510;11.934;2023-11-19T02:44:44;99923.69;;;7.39;100.00
18533;BME280;9396;51.510;11.934;2023-11-19T02:47:12;99911.16;;;7.41;100.00
18533;BME280;9396;51.510;11.934;2023-11-19T02:49:38;99905.69;;;7.43;100.00
18533;BME280;9396;51.510;11.934;2023-11-19T02:52:06;99892.28;;;7.54;100.00
18533;BME280;9396;51.510;11.934;2023-11-19T02:54:34;99866.69;;;7.45;100.00
18533;BME280;9396;51.510;11.934;2023-11-19T02:57:02;99875.06;;;7.40;100.00
18533;BME280;9396;51.510;11.934;2023-11-19T02:59:30;99875.50;;;7.36;100.00
18533;BME280;9396;51.510;11.934;2023-11-19T03:02:04;99868.66;;;7.43;100.00
18533;BME280;9396;51.510;11.934;2023-11-19T03:04:33;99861.22;;;7.29;100.00
18533;BME280;9396;51.510;11.934;2023-11-19T03:07:00;99872.72;;;7.37;100.00
18533;BME280;9396;51.510;11.934;2023-11-19T03:09:27;99885.41;;;7.34;100.00
18533;BME280;9396;51.510;11.934;2023-11-19T03:11:54;99875.50;;;7.36;100.00
18533;BME280;9396;51.510;11.934;2023-11-19T03:14:21;99877.47;;;7.34;100.00
18533;BME280;9396;51.510;11.934;2023-11-19T03:16:48;99869.03;;;7.48;100.00
18533;BME280;9396;51.510;11.934;2023-11-19T03:19:16;99867.81;;;7.42;100.00
18533;BME280;9396;51.510;11.934;2023-11-19T03:21:44;99874.88;;;7.51;100.00
18533;BME280;9396;51.510;11.934;2023-11-19T03:24:12;99866.19;;;7.59;100.00
18533;BME280;9396;51.510;11.934;2023-11-19T03:26:40;99858.66;;;7.64;100.00
18533;BME280;9396;51.510;11.934;2023-11-19T03:29:08;99858.50;;;7.66;100.00
18533;BME280;9396;51.510;11.934;2023-11-19T03:31:34;99857.53;;;7.67;100.00
18533;BME280;9396;51.510;11.934;2023-11-19T03:34:01;99858.22;;;7.69;100.00
18533;BME280;9396;51.510;11.934;2023-11-19T03:36:32;99860.41;;;7.73;100.00
18533;BME280;9396;51.510;11.934;2023-11-19T03:39:00;99851.50;;;7.74;100.00
18533;BME280;9396;51.510;11.934;2023-11-19T03:41:28;99834.25;;;7.70;100.00
18533;BME280;9396;51.510;11.934;2023-11-19T03:43:54;99842.22;;;7.60;100.00
18533;BME280;9396;51.510;11.934;2023-11-19T03:46:21;99842.03;;;7.72;100.00
18533;BME280;9396;51.510;11.934;2023-11-19T03:48:48;99841.44;;;7.78;100.00
18533;BME280;9396;51.510;11.934;2023-11-19T03:51:15;99850.34;;;7.77;100.00
18533;BME280;9396;51.510;11.934;2023-11-19T03:53:42;99846.84;;;7.76;100.00
18533;BME280;9396;51.510;11.934;2023-11-19T03:56:10;99841.56;;;7.76;100.00
18533;BME280;9396;51.510;11.934;2023-11-19T03:58:38;99829.69;;;7.80;100.00
18533;BME280;9396;51.510;11.934;2023-11-19T04:01:05;99823.34;;;7.91;100.00
18533;BME280;9396;51.510;11.934;2023-11-19T04:03:31;99822.38;;;7.74;100.00
18533;BME280;9396;51.510;11.934;2023-11-19T04:05:58;99819.28;;;7.79;100.00
18533;BME280;9396;51.510;11.934;2023-11-19T04:08:25;99821.00;;;7.88;100.00
18533;BME280;9396;51.510;11.934;2023-11-19T04:10:51;99808.69;;;7.96;100.00
18533;BME280;9396;51.510;11.934;2023-11-19T04:13:19;99795.53;;;8.04;100.00
18533;BME280;9396;51.510;11.934;2023-11-19T04:15:46;99782.69;;;7.74;100.00
18533;BME280;9396;51.510;11.934;2023-11-19T04:18:13;99785.16;;;7.93;100.00
18533;BME280;9396;51.510;11.934;2023-11-19T04:20:39;99778.88;;;7.94;100.00
18533;BME280;9396;51.510;11.934;2023-11-19T04:23:07;99774.78;;;7.82;100.00
18533;BME280;9396;51.510;11.934;2023-11-19T04:25:35;99770.88;;;7.86;100.00
18533;BME280;9396;51.510;11.934;2023-11-19T04:28:01;99791.00;;;7.79;100.00
18533;BME280;9396;51.510;11.934;2023-11-19T04:30:30;99768.59;;;7.91;100.00
18533;BME280;9396;51.510;11.934;2023-11-19T04:32:57;99762.44;;;7.91;100.00
18533;BME280;9396;51.510;11.934;2023-11-19T04:35:24;99764.03;;;7.84;100.00
18533;BME280;9396;51.510;11.934;2023-11-19T04:37:51;99768.06;;;7.70;100.00
18533;BME280;9396;51.510;11.934;2023-11-19T04:40:18;99770.09;;;7.76;100.00
18533;BME280;9396;51.510;11.934;2023-11-19T04:42:48;99752.41;;;7.77;100.00
18533;BME280;9396;51.510;11.934;2023-11-19T04:45:14;99753.56;;;7.74;100.00
18533;BME280;9396;51.510;11.934;2023-11-19T04:47:43;99734.63;;;7.87;100.00
18533;BME280;9396;51.510;11.934;2023-11-19T04:50:09;99729.41;;;7.95;100.00
18533;BME280;9396;51.510;11.934;2023-11-19T04:52:37;99734.69;;;7.95;100.00
18533;BME280;9396;51.510;11.934;2023-11-19T04:55:06;99747.31;;;8.01;100.00
18533;BME280;9396;51.510;11.934;2023-11-19T04:57:33;99733.63;;;8.05;100.00
18533;BME280;9396;51.510;11.934;2023-11-19T04:59:59;99742.28;;;8.15;100.00
18533;BME280;9396;51.510;11.934;2023-11-19T05:02:26;99745.00;;;8.23;100.00
18533;BME280;9396;51.510;11.934;2023-11-19T05:04:54;99720.59;;;8.29;100.00
18533;BME280;9396;51.510;11.934;2023-11-19T05:07:20;99715.81;;;8.33;100.00
18533;BME280;9396;51.510;11.934;2023-11-19T05:09:47;99714.47;;;8.11;100.00
18533;BME280;9396;51.510;11.934;2023-11-19T05:12:14;99722.63;;;8.18;100.00
18533;BME280;9396;51.510;11.934;2023-11-19T05:14:40;99718.09;;;8.10;100.00
18533;BME280;9396;51.510;11.934;2023-11-19T05:17:13;99714.22;;;8.05;100.00
18533;BME280;9396;51.510;11.934;2023-11-19T05:19:40;99704.72;;;7.94;100.00
18533;BME280;9396;51.510;11.934;2023-11-19T05:22:08;99713.47;;;7.87;100.00
18533;BME280;9396;51.510;11.934;2023-11-19T05:24:35;99706.81;;;7.83;100.00
18533;BME280;9396;51.510;11.934;2023-11-19T05:27:01;99706.69;;;7.92;100.00
18533;BME280;9396;51.510;11.934;2023-11-19T05:29:28;99718.31;;;7.99;100.00
18533;BME280;9396;51.510;11.934;2023-11-19T05:31:55;99729.16;;;8.06;100.00
18533;BME280;9396;51.510;11.934;2023-11-19T05:34:21;99711.69;;;8.21;100.00
18533;BME280;9396;51.510;11.934;2023-11-19T05:36:48;99716.78;;;8.14;100.00
18533;BME280;9396;51.510;11.934;2023-11-19T05:39:16;99705.16;;;8.07;100.00
18533;BME280;9396;51.510;11.934;2023-11-19T05:41:44;99715.88;;;8.23;100.00
18533;BME280;9396;51.510;11.934;2023-11-19T05:44:10;99709.50;;;8.34;100.00
18533;BME280;9396;51.510;11.934;2023-11-19T05:46:37;99701.75;;;8.40;100.00
18533;BME280;9396;51.510;11.934;2023-11-19T05:49:07;99708.31;;;8.28;100.00
18533;BME280;9396;51.510;11.934;2023-11-19T05:51:36;99708.97;;;8.30;100.00
18533;BME280;9396;51.510;11.934;2023-11-19T05:54:04;99703.69;;;8.30;100.00
18533;BME280;9396;51.510;11.934;2023-11-19T05:56:33;99703.44;;;8.41;100.00
18533;BME280;9396;51.510;11.934;2023-11-19T05:59:00;99694.91;;;8.30;100.00
18533;BME280;9396;51.510;11.934;2023-11-19T06:01:28;99690.13;;;8.33;100.00
18533;BME280;9396;51.510;11.934;2023-11-19T06:03:55;99698.75;;;8.35;100.00
18533;BME280;9396;51.510;11.934;2023-11-19T06:06:22;99702.69;;;8.31;100.00
18533;BME280;9396;51.510;11.934;2023-11-19T06:08:49;99696.09;;;8.35;100.00
18533;BME280;9396;51.510;11.934;2023-11-19T06:11:16;99697.81;;;8.44;100.00
18533;BME280;9396;51.510;11.934;2023-11-19T06:13:47;99705.41;;;8.39;100.00
18533;BME280;9396;51.510;11.934;2023-11-19T06:16:15;99718.22;;;8.52;100.00
18533;BME280;9396;51.510;11.934;2023-11-19T06:18:42;99727.13;;;8.43;100.00
18533;BME280;9396;51.510;11.934;2023-11-19T06:21:09;99723.75;;;8.33;100.00
18533;BME280;9396;51.510;11.934;2023-11-19T06:23:36;99720.63;;;8.37;100.00
18533;BME280;9396;51.510;11.934;2023-11-19T06:26:03;99710.69;;;8.39;100.00
18533;BME280;9396;51.510;11.934;2023-11-19T06:28:30;99712.50;;;8.39;100.00
18533;BME280;9396;51.510;11.934;2023-11-19T06:30:58;99708.56;;;8.43;100.00
18533;BME280;9396;51.510;11.934;2023-11-19T06:33:25;99707.28;;;8.47;100.00
18533;BME280;9396;51.510;11.934;2023-11-19T06:35:52;99698.00;;;8.51;100.00
18533;BME280;9396;51.510;11.934;2023-11-19T06:38:19;99690.63;;;8.37;100.00
18533;BME280;9396;51.510;11.934;2023-11-19T06:40:46;99684.38;;;8.38;100.00
18533;BME280;9396;51.510;11.934;2023-11-19T06:43:13;99676.75;;;8.43;100.00
18533;BME280;9396;51.510;11.934;2023-11-19T06:45:40;99680.25;;;8.43;100.00
18533;BME280;9396;51.510;11.934;2023-11-19T06:48:08;99674.31;;;8.49;100.00
18533;BME280;9396;51.510;11.934;2023-11-19T06:50:35;99674.97;;;8.43;100.00
18533;BME280;9396;51.510;11.934;2023-11-19T06:53:02;99661.38;;;8.21;100.00
18533;BME280;9396;51.510;11.934;2023-11-19T06:55:30;99694.38;;;8.26;100.00
18533;BME280;9396;51.510;11.934;2023-11-19T06:57:59;99673.47;;;8.23;100.00
18533;BME280;9396;51.510;11.934;2023-11-19T07:00:27;99691.81;;;8.17;100.00
18533;BME280;9396;51.510;11.934;2023-11-19T07:02:54;99706.88;;;8.16;100.00
18533;BME280;9396;51.510;11.934;2023-11-19T07:05:22;99699.78;;;8.17;100.00
18533;BME280;9396;51.510;11.934;2023-11-19T07:07:49;99688.34;;;8.16;100.00
18533;BME280;9396;51.510;11.934;2023-11-19T07:10:16;99703.06;;;8.19;100.00
18533;BME280;9396;51.510;11.934;2023-11-19T07:12:43;99702.56;;;8.15;100.00
18533;BME280;9396;51.510;11.934;2023-11-19T07:15:10;99707.78;;;8.25;100.00
18533;BME280;9396;51.510;11.934;2023-11-19T07:17:38;99707.34;;;8.29;100.00
18533;BME280;9396;51.510;11.934;2023-11-19T07:20:06;99712.66;;;8.37;100.00
18533;BME280;9396;51.510;11.934;2023-11-19T07:22:34;99719.31;;;8.41;100.00
18533;BME280;9396;51.510;11.934;2023-11-19T07:25:00;99725.50;;;8.50;100.00
18533;BME280;9396;51.510;11.934;2023-11-19T07:27:27;99727.66;;;8.54;100.00
18533;BME280;9396;51.510;11.934;2023-11-19T07:29:54;99729.59;;;8.44;100.00
18533;BME280;9396;51.510;11.934;2023-11-19T07:32:21;99730.06;;;8.65;100.00
18533;BME280;9396;51.510;11.934;2023-11-19T07:34:48;99733.09;;;8.79;100.00
18533;BME280;9396;51.510;11.934;2023-11-19T07:37:14;99738.81;;;8.92;100.00
18533;BME280;9396;51.510;11.934;2023-11-19T07:39:43;99734.16;;;8.94;100.00
18533;BME280;9396;51.510;11.934;2023-11-19T07:42:10;99741.16;;;9.03;100.00
18533;BME280;9396;51.510;11.934;2023-11-19T07:44:36;99748.13;;;9.04;100.00
18533;BME280;9396;51.510;11.934;2023-11-19T07:47:03;99736.41;;;9.14;100.00
18533;BME280;9396;51.510;11.934;2023-11-19T07:49:30;99732.56;;;9.09;100.00
18533;BME280;9396;51.510;11.934;2023-11-19T07:51:57;99741.88;;;9.21;100.00
18533;BME280;9396;51.510;11.934;2023-11-19T07:54:23;99723.34;;;9.29;100.00
18533;BME280;9396;51.510;11.934;2023-11-19T07:56:52;99705.56;;;9.21;100.00
18533;BME280;9396;51.510;11.934;2023-11-19T07:59:18;99719.84;;;9.28;100.00
18533;BME280;9396;51.510;11.934;2023-11-19T08:01:45;99736.06;;;9.17;100.00
18533;BME280;9396;51.510;11.934;2023-11-19T08:04:11;99744.19;;;9.08;100.00
18533;BME280;9396;51.510;11.934;2023-11-19T08:06:38;99749.66;;;9.14;100.00
18533;BME280;9396;51.510;11.934;2023-11-19T08:09:05;99755.75;;;8.99;100.00
18533;BME280;9396;51.510;11.934;2023-11-19T08:11:39;99748.56;;;8.91;100.00
18533;BME280;9396;51.510;11.934;2023-11-19T08:14:07;99748.59;;;8.99;100.00
18533;BME280;9396;51.510;11.934;2023-11-19T08:16:33;99754.66;;;8.84;100.00
18533;BME280;9396;51.510;11.934;2023-11-19T08:19:00;99758.91;;;8.69;100.00
18533;BME280;9396;51.510;11.934;2023-11-19T08:21:27;99762.19;;;8.62;100.00
18533;BME280;9396;51.510;11.934;2023-11-19T08:23:53;99751.31;;;8.74;100.00
18533;BME280;9396;51.510;11.934;2023-11-19T08:26:20;99752.63;;;8.78;100.00
18533;BME280;9396;51.510;11.934;2023-11-19T08:28:47;99746.91;;;8.90;100.00
18533;BME280;9396;51.510;11.934;2023-11-19T08:31:15;99756.88;;;8.88;100.00
18533;BME280;9396;51.510;11.934;2023-11-19T08:33:41;99754.06;;;8.98;100.00
18533;BME280;9396;51.510;11.934;2023-11-19T08:36:08;99762.00;;;8.90;100.00
18533;BME280;9396;51.510;11.934;2023-11-19T08:38:35;99763.84;;;8.97;100.00
18533;BME280;9396;51.510;11.934;2023-11-19T08:41:02;99760.78;;;9.18;100.00
18533;BME280;9396;51.510;11.934;2023-11-19T08:43:29;99754.03;;;9.31;100.00
18533;BME280;9396;51.510;11.934;2023-11-19T08:45:56;99765.69;;;9.46;100.00
18533;BME280;9396;51.510;11.934;2023-11-19T08:48:25;99762.03;;;9.47;100.00
18533;BME280;9396;51.510;11.934;2023-11-19T08:50:52;99765.00;;;9.52;100.00
18533;BME280;9396;51.510;11.934;2023-11-19T08:53:18;99755.41;;;9.51;100.00
18533;BME280;9396;51.510;11.934;2023-11-19T08:55:46;99746.78;;;9.57;100.00
18533;BME280;9396;51.510;11.934;2023-11-19T08:58:12;99756.75;;;9.63;100.00
18533;BME280;9396;51.510;11.934;2023-11-19T09:00:39;99744.97;;;9.66;100.00
18533;BME280;9396;51.510;11.934;2023-11-19T09:03:06;99757.59;;;9.64;100.00
18533;BME280;9396;51.510;11.934;2023-11-19T09:05:36;99762.59;;;9.75;100.00
18533;BME280;9396;51.510;11.934;2023-11-19T09:08:03;99769.06;;;9.81;100.00
18533;BME280;9396;51.510;11.934;2023-11-19T09:10:30;99773.91;;;9.93;100.00
18533;BME280;9396;51.510;11.934;2023-11-19T09:12:57;99768.91;;;9.98;100.00
18533;BME280;9396;51.510;11.934;2023-11-19T09:15:23;99765.25;;;10.07;100.00
18533;BME280;9396;51.510;11.934;2023-11-19T09:17:50;99772.28;;;10.16;100.00
18533;BME280;9396;51.510;11.934;2023-11-19T09:20:16;99780.91;;;10.10;100.00
18533;BME280;9396;51.510;11.934;2023-11-19T09:22:44;99776.06;;;10.22;100.00
18533;BME280;9396;51.510;11.934;2023-11-19T09:25:11;99766.28;;;10.30;100.00
18533;BME280;9396;51.510;11.934;2023-11-19T09:27:42;99775.56;;;10.42;100.00
18533;BME280;9396;51.510;11.934;2023-11-19T09:30:09;99778.19;;;10.50;100.00
18533;BME280;9396;51.510;11.934;2023-11-19T09:32:36;99776.72;;;10.48;100.00
18533;BME280;9396;51.510;11.934;2023-11-19T09:35:04;99777.53;;;10.56;100.00
18533;BME280;9396;51.510;11.934;2023-11-19T09:37:32;99781.34;;;10.54;100.00
18533;BME280;9396;51.510;11.934;2023-11-19T09:40:00;99784.69;;;10.48;100.00
18533;BME280;9396;51.510;11.934;2023-11-19T09:42:26;99773.41;;;10.46;100.00
18533;BME280;9396;51.510;11.934;2023-11-19T09:44:54;99769.91;;;10.53;100.00
18533;BME280;9396;51.510;11.934;2023-11-19T09:47:23;99774.34;;;10.61;100.00
18533;BME280;9396;51.510;11.934;2023-11-19T09:49:52;99764.69;;;10.68;100.00
18533;BME280;9396;51.510;11.934;2023-11-19T09:52:19;99756.09;;;10.66;100.00
18533;BME280;9396;51.510;11.934;2023-11-19T09:54:46;99745.09;;;10.69;100.00
18533;BME280;9396;51.510;11.934;2023-11-19T09:57:15;99754.56;;;10.71;100.00
18533;BME280;9396;51.510;11.934;2023-11-19T09:59:43;99749.56;;;10.76;100.00
18533;BME280;9396;51.510;11.934;2023-11-19T10:02:12;99750.06;;;10.80;100.00
18533;BME280;9396;51.510;11.934;2023-11-19T10:04:39;99748.56;;;10.77;100.00
18533;BME280;9396;51.510;11.934;2023-11-19T10:07:06;99756.84;;;10.82;100.00
18533;BME280;9396;51.510;11.934;2023-11-19T10:09:33;99748.88;;;10.82;100.00
18533;BME280;9396;51.510;11.934;2023-11-19T10:12:00;99761.84;;;10.86;100.00
18533;BME280;9396;51.510;11.934;2023-11-19T10:14:30;99753.50;;;10.89;100.00
18533;BME280;9396;51.510;11.934;2023-11-19T10:16:58;99755.16;;;10.90;100.00
18533;BME280;9396;51.510;11.934;2023-11-19T10:19:29;99752.53;;;10.82;100.00
18533;BME280;9396;51.510;11.934;2023-11-19T10:21:56;99751.03;;;10.87;100.00
18533;BME280;9396;51.510;11.934;2023-11-19T10:24:31;99755.69;;;10.85;100.00
18533;BME280;9396;51.510;11.934;2023-11-19T10:26:59;99769.00;;;10.77;100.00
18533;BME280;9396;51.510;11.934;2023-11-19T10:29:27;99754.28;;;10.50;100.00
18533;BME280;9396;51.510;11.934;2023-11-19T10:31:56;99763.72;;;10.61;100.00
18533;BME280;9396;51.510;11.934;2023-11-19T10:34:24;99764.91;;;10.58;100.00
18533;BME280;9396;51.510;11.934;2023-11-19T10:36:51;99753.06;;;10.61;100.00
18533;BME280;9396;51.510;11.934;2023-11-19T10:39:18;99753.91;;;10.61;100.00
18533;BME280;9396;51.510;11.934;2023-11-19T10:41:46;99753.59;;;10.56;100.00
18533;BME280;9396;51.510;11.934;2023-11-19T10:44:32;99759.59;;;10.58;100.00
18533;BME280;9396;51.510;11.934;2023-11-19T10:47:01;99750.59;;;10.59;100.00
18533;BME280;9396;51.510;11.934;2023-11-19T10:49:28;99750.09;;;10.64;100.00
18533;BME280;9396;51.510;11.934;2023-11-19T10:51:55;99751.59;;;10.58;100.00
18533;BME280;9396;51.510;11.934;2023-11-19T10:54:24;99746.94;;;10.60;100.00
18533;BME280;9396;51.510;11.934;2023-11-19T10:56:54;99752.28;;;10.52;100.00
18533;BME280;9396;51.510;11.934;2023-11-19T10:59:22;99754.78;;;10.46;100.00
18533;BME280;9396;51.510;11.934;2023-11-19T11:01:53;99752.47;;;10.43;100.00
18533;BME280;9396;51.510;11.934;2023-11-19T11:04:23;99765.88;;;10.57;100.00
18533;BME280;9396;51.510;11.934;2023-11-19T11:06:51;99758.41;;;10.69;100.00
18533;BME280;9396;51.510;11.934;2023-11-19T11:09:18;99754.22;;;10.74;100.00
18533;BME280;9396;51.510;11.934;2023-11-19T11:11:46;99749.53;;;10.85;100.00
18533;BME280;9396;51.510;11.934;2023-11-19T11:14:13;99743.22;;;10.86;100.00
18533;BME280;9396;51.510;11.934;2023-11-19T11:16:42;99738.22;;;10.91;100.00
18533;BME280;9396;51.510;11.934;2023-11-19T11:19:10;99736.53;;;10.90;100.00
18533;BME280;9396;51.510;11.934;2023-11-19T11:21:39;99737.72;;;10.87;100.00
18533;BME280;9396;51.510;11.934;2023-11-19T11:24:26;99733.91;;;10.82;100.00
18533;BME280;9396;51.510;11.934;2023-11-19T11:27:25;99745.22;;;10.84;100.00
18533;BME280;9396;51.510;11.934;2023-11-19T11:30:01;99741.19;;;10.88;100.00
18533;BME280;9396;51.510;11.934;2023-11-19T11:32:35;99744.19;;;10.93;100.00
18533;BME280;9396;51.510;11.934;2023-11-19T11:35:19;99743.53;;;10.82;100.00
18533;BME280;9396;51.510;11.934;2023-11-19T11:37:54;99735.72;;;10.89;100.00
18533;BME280;9396;51.510;11.934;2023-11-19T11:40:22;99728.34;;;10.99;100.00
18533;BME280;9396;51.510;11.934;2023-11-19T11:42:49;99725.03;;;11.05;100.00
18533;BME280;9396;51.510;11.934;2023-11-19T11:45:19;99734.47;;;11.08;100.00
18533;BME280;9396;51.510;11.934;2023-11-19T11:48:08;99728.75;;;11.19;100.00
18533;BME280;9396;51.510;11.934;2023-11-19T11:50:51;99728.19;;;11.31;100.00
18533;BME280;9396;51.510;11.934;2023-11-19T11:53:19;99727.63;;;11.44;100.00
18533;BME280;9396;51.510;11.934;2023-11-19T11:55:53;99714.91;;;11.54;100.00
18533;BME280;9396;51.510;11.934;2023-11-19T11:58:25;99714.72;;;11.55;100.00
18533;BME280;9396;51.510;11.934;2023-11-19T12:00:52;99715.44;;;11.49;100.00
18533;BME280;9396;51.510;11.934;2023-11-19T12:03:20;99715.03;;;11.60;100.00
18533;BME280;9396;51.510;11.934;2023-11-19T12:05:49;99715.03;;;11.60;100.00
18533;BME280;9396;51.510;11.934;2023-11-19T12:08:19;99708.38;;;11.64;100.00
18533;BME280;9396;51.510;11.934;2023-11-19T12:10:47;99712.75;;;11.80;100.00
18533;BME280;9396;51.510;11.934;2023-11-19T12:13:15;99714.97;;;11.76;100.00
18533;BME280;9396;51.510;11.934;2023-11-19T12:16:08;99701.00;;;11.89;100.00
18533;BME280;9396;51.510;11.934;2023-11-19T12:18:39;99710.03;;;11.88;100.00
18533;BME280;9396;51.510;11.934;2023-11-19T12:21:07;99706.50;;;12.10;100.00
18533;BME280;9396;51.510;11.934;2023-11-19T12:23:44;99705.31;;;12.13;100.00
18533;BME280;9396;51.510;11.934;2023-11-19T12:26:21;99701.03;;;12.26;100.00
18533;BME280;9396;51.510;11.934;2023-11-19T12:29:00;99692.84;;;12.28;100.00
18533;BME280;9396;51.510;11.934;2023-11-19T12:31:29;99692.56;;;12.37;100.00
18533;BME280;9396;51.510;11.934;2023-11-19T12:33:55;99696.69;;;12.25;100.00
18533;BME280;9396;51.510;11.934;2023-11-19T12:36:24;99695.47;;;12.13;100.00
18533;BME280;9396;51.510;11.934;2023-11-19T12:38:50;99698.38;;;12.04;100.00
18533;BME280;9396;51.510;11.934;2023-11-19T12:41:17;99705.41;;;12.05;100.00
18533;BME280;9396;51.510;11.934;2023-11-19T12:43:47;99712.78;;;11.95;100.00
18533;BME280;9396;51.510;11.934;2023-11-19T12:46:17;99708.28;;;11.95;100.00
18533;BME280;9396;51.510;11.934;2023-11-19T12:48:45;99699.88;;;12.06;100.00
18533;BME280;9396;51.510;11.934;2023-11-19T12:51:12;99704.66;;;12.11;100.00
18533;BME280;9396;51.510;11.934;2023-11-19T12:53:49;99706.22;;;12.20;100.00
18533;BME280;9396;51.510;11.934;2023-11-19T12:56:16;99697.06;;;12.22;100.00
18533;BME280;9396;51.510;11.934;2023-11-19T12:58:43;99711.75;;;12.18;100.00
18533;BME280;9396;51.510;11.934;2023-11-19T13:01:15;99715.91;;;12.21;100.00
18533;BME280;9396;51.510;11.934;2023-11-19T13:03:42;99716.09;;;12.19;100.00